createdAt,value
2018-09-29T00:00:28.479Z,8.72
2018-09-29T00:02:56.453Z,8.70
2018-09-29T00:05:24.067Z,8.65
2018-09-29T00:07:51.547Z,8.53
2018-09-29T00:10:19.034Z,8.62
2018-09-29T00:12:46.483Z,8.62
2018-09-29T00:15:14.055Z,8.73
2018-09-29T00:17:41.438Z,8.83
2018-09-29T00:20:08.954Z,8.77
2018-09-29T00:22:36.384Z,8.63
2018-09-29T00:25:04.183Z,8.47
2018-09-29T00:27:31.618Z,8.33
2018-09-29T00:29:59.059Z,8.25
2018-09-29T00:32:26.503Z,8.24
2018-09-29T00:34:53.986Z,8.19
2018-09-29T00:37:21.422Z,8.26
2018-09-29T00:39:49.360Z,8.21
2018-09-29T00:42:16.878Z,8.15
2018-09-29T00:44:44.354Z,8.11
2018-09-29T00:47:11.970Z,8.13
2018-09-29T00:49:39.426Z,8.19
2018-09-29T00:52:06.966Z,8.13
2018-09-29T00:54:34.374Z,8.03
2018-09-29T00:57:01.980Z,8.00
2018-09-29T00:59:29.464Z,8.00
2018-09-29T01:01:56.927Z,7.92
2018-09-29T01:04:24.452Z,7.92
2018-09-29T01:06:51.988Z,7.93
2018-09-29T01:09:19.450Z,7.85
2018-09-29T01:11:46.914Z,7.91
2018-09-29T01:14:14.399Z,7.89
2018-09-29T01:16:41.965Z,7.92
2018-09-29T01:19:09.410Z,7.89
2018-09-29T01:21:37.132Z,7.80
2018-09-29T01:24:04.549Z,7.83
2018-09-29T01:26:32.015Z,7.73
2018-09-29T01:28:59.415Z,7.74
2018-09-29T01:31:26.831Z,7.70
2018-09-29T01:33:54.240Z,7.65
2018-09-29T01:36:21.758Z,7.64
2018-09-29T01:38:49.133Z,7.63
2018-09-29T01:41:16.732Z,7.59
2018-09-29T01:43:44.247Z,7.52
2018-09-29T01:46:11.690Z,7.47
2018-09-29T01:48:39.181Z,7.43
2018-09-29T01:51:06.672Z,7.39
2018-09-29T01:53:34.190Z,7.43
2018-09-29T01:56:01.659Z,7.42
2018-09-29T01:58:29.306Z,7.42
2018-09-29T02:00:56.733Z,7.31
2018-09-29T02:03:24.146Z,7.21
2018-09-29T02:05:51.592Z,7.13
2018-09-29T02:08:19.018Z,7.11
2018-09-29T02:10:46.631Z,7.03
2018-09-29T02:13:14.133Z,7.11
2018-09-29T02:15:41.607Z,7.08
2018-09-29T02:18:09.037Z,7.05
2018-09-29T02:20:36.618Z,7.03
2018-09-29T02:23:04.188Z,7.09
2018-09-29T02:25:31.625Z,7.06
2018-09-29T02:27:59.096Z,6.98
2018-09-29T02:30:26.513Z,6.95
2018-09-29T02:32:53.965Z,6.88
2018-09-29T02:35:21.571Z,6.90
2018-09-29T02:37:48.953Z,6.96
2018-09-29T02:40:16.530Z,7.07
2018-09-29T02:42:43.918Z,7.14
2018-09-29T02:45:11.398Z,7.06
2018-09-29T02:47:39.234Z,6.98
2018-09-29T02:50:06.877Z,6.99
2018-09-29T02:52:34.390Z,6.95
2018-09-29T02:55:01.859Z,7.02
2018-09-29T02:57:29.298Z,7.11
2018-09-29T02:59:56.659Z,7.08
2018-09-29T03:02:24.094Z,7.01
2018-09-29T03:04:51.513Z,6.98
2018-09-29T03:07:18.975Z,7.22
2018-09-29T03:09:46.334Z,7.10
2018-09-29T03:12:13.685Z,6.98
2018-09-29T03:14:41.122Z,6.87
2018-09-29T03:17:08.526Z,6.81
2018-09-29T03:19:36.216Z,6.80
2018-09-29T03:22:03.781Z,6.83
2018-09-29T03:24:31.442Z,6.81
2018-09-29T03:26:58.898Z,6.76
2018-09-29T03:29:26.274Z,6.72
2018-09-29T03:31:53.759Z,6.78
2018-09-29T03:34:21.178Z,6.81
2018-09-29T03:36:48.586Z,6.78
2018-09-29T03:39:16.013Z,6.83
2018-09-29T03:41:43.491Z,6.81
2018-09-29T03:44:10.895Z,6.74
2018-09-29T03:46:39.118Z,6.96
2018-09-29T03:49:06.669Z,6.95
2018-09-29T03:51:34.182Z,6.85
2018-09-29T03:54:01.634Z,6.81
2018-09-29T03:56:29.129Z,6.85
2018-09-29T03:58:56.652Z,6.80
2018-09-29T04:01:24.579Z,6.77
2018-09-29T04:03:52.056Z,6.75
2018-09-29T04:06:19.567Z,6.67
2018-09-29T04:08:47.073Z,6.67
2018-09-29T04:11:14.763Z,6.65
2018-09-29T04:13:42.574Z,6.63
2018-09-29T04:16:09.998Z,6.65
2018-09-29T04:18:37.479Z,6.68
2018-09-29T04:21:04.978Z,6.69
2018-09-29T04:23:32.429Z,6.70
2018-09-29T04:25:59.934Z,6.64
2018-09-29T04:28:27.437Z,6.53
2018-09-29T04:30:54.932Z,6.46
2018-09-29T04:33:22.427Z,6.48
2018-09-29T04:35:49.876Z,6.48
2018-09-29T04:38:17.745Z,6.50
2018-09-29T04:40:45.176Z,6.53
2018-09-29T04:43:12.681Z,6.56
2018-09-29T04:45:40.169Z,6.62
2018-09-29T04:48:07.884Z,6.68
2018-09-29T04:50:35.345Z,6.59
2018-09-29T04:53:03.001Z,6.57
2018-09-29T04:55:30.745Z,6.56
2018-09-29T04:57:58.139Z,6.73
2018-09-29T05:00:25.677Z,6.62
2018-09-29T05:02:53.053Z,6.54
2018-09-29T05:05:20.607Z,6.43
2018-09-29T05:07:48.003Z,6.40
2018-09-29T05:10:15.477Z,6.52
2018-09-29T05:12:43.047Z,6.56
2018-09-29T05:15:10.531Z,6.57
2018-09-29T05:17:38.031Z,6.59
2018-09-29T05:20:05.722Z,6.49
2018-09-29T05:22:33.345Z,6.51
2018-09-29T05:25:00.853Z,6.51
2018-09-29T05:27:28.341Z,6.65
2018-09-29T05:29:55.792Z,6.70
2018-09-29T05:32:23.309Z,6.74
2018-09-29T05:34:50.706Z,6.74
2018-09-29T05:37:18.387Z,6.85
2018-09-29T05:39:45.809Z,6.92
2018-09-29T05:42:13.292Z,7.05
2018-09-29T05:44:40.729Z,7.14
2018-09-29T05:47:08.372Z,7.24
2018-09-29T05:49:35.802Z,7.52
2018-09-29T05:52:03.494Z,8.03
2018-09-29T05:54:30.988Z,9.20
2018-09-29T05:56:58.410Z,10.36
2018-09-29T05:59:25.839Z,10.98
2018-09-29T06:01:53.317Z,10.97
2018-09-29T06:04:20.767Z,10.75
2018-09-29T06:06:48.217Z,10.58
2018-09-29T06:09:15.605Z,10.78
2018-09-29T06:11:42.977Z,11.32
2018-09-29T06:14:10.418Z,12.10
2018-09-29T06:16:37.795Z,12.74
2018-09-29T06:19:05.278Z,13.68
2018-09-29T06:21:33.014Z,14.25
2018-09-29T06:24:00.411Z,14.54
2018-09-29T06:26:27.834Z,15.16
2018-09-29T06:28:55.505Z,15.91
2018-09-29T06:31:23.037Z,16.21
2018-09-29T06:33:50.433Z,16.28
2018-09-29T06:36:17.955Z,17.49
2018-09-29T06:38:45.488Z,19.39
2018-09-29T06:41:12.971Z,20.98
2018-09-29T06:43:40.425Z,22.16
2018-09-29T06:46:08.011Z,23.11
2018-09-29T06:48:35.410Z,23.96
2018-09-29T06:51:02.797Z,23.80
2018-09-29T06:53:30.214Z,24.56
2018-09-29T06:55:57.698Z,25.28
2018-09-29T06:58:25.113Z,25.22
2018-09-29T07:00:52.538Z,24.97
2018-09-29T07:03:20.002Z,23.67
2018-09-29T07:05:47.485Z,23.58
2018-09-29T07:08:15.075Z,24.13
2018-09-29T07:10:42.599Z,26.04
2018-09-29T07:13:10.127Z,25.39
2018-09-29T07:15:37.618Z,26.03
2018-09-29T07:18:05.063Z,27.32
2018-09-29T07:20:32.801Z,28.45
2018-09-29T07:23:00.322Z,29.58
2018-09-29T07:25:27.809Z,31.02
2018-09-29T07:27:55.217Z,31.48
2018-09-29T07:30:22.645Z,32.50
2018-09-29T07:32:50.245Z,32.70
2018-09-29T07:35:17.887Z,33.35
2018-09-29T07:37:45.439Z,34.16
2018-09-29T07:40:13.005Z,33.67
2018-09-29T07:42:40.527Z,33.50
2018-09-29T07:45:08.009Z,33.08
2018-09-29T07:47:35.508Z,33.77
2018-09-29T07:50:03.082Z,33.76
2018-09-29T07:52:30.503Z,32.65
2018-09-29T07:54:58.423Z,33.06
2018-09-29T07:57:25.821Z,33.72
2018-09-29T07:59:53.298Z,34.42
2018-09-29T08:02:20.674Z,35.42
2018-09-29T08:04:48.351Z,34.47
2018-09-29T08:07:15.928Z,33.54
2018-09-29T08:09:43.416Z,34.51
2018-09-29T08:12:10.906Z,35.56
2018-09-29T08:14:38.362Z,36.58
2018-09-29T08:17:06.067Z,37.25
2018-09-29T08:19:33.514Z,36.77
2018-09-29T08:22:00.914Z,34.13
2018-09-29T08:24:28.442Z,32.83
2018-09-29T08:26:55.782Z,33.30
2018-09-29T08:29:23.290Z,33.43
2018-09-29T08:31:50.920Z,32.85
2018-09-29T08:34:18.439Z,32.38
2018-09-29T08:36:45.962Z,31.58
2018-09-29T08:39:13.424Z,31.96
2018-09-29T08:41:40.866Z,32.61
2018-09-29T08:44:08.304Z,33.48
2018-09-29T08:46:35.775Z,33.61
2018-09-29T08:49:03.314Z,33.01
2018-09-29T08:51:30.752Z,32.85
2018-09-29T08:53:58.301Z,34.07
2018-09-29T08:56:25.787Z,34.27
2018-09-29T08:58:53.398Z,34.05
2018-09-29T09:01:20.890Z,32.82
2018-09-29T09:03:48.406Z,31.64
2018-09-29T09:06:16.098Z,29.88
2018-09-29T09:08:43.510Z,27.57
2018-09-29T09:11:11.010Z,27.65
2018-09-29T09:13:38.440Z,26.27
2018-09-29T09:16:06.114Z,25.03
2018-09-29T09:18:33.600Z,23.48
2018-09-29T09:21:01.138Z,21.45
2018-09-29T09:23:28.575Z,19.80
2018-09-29T09:25:56.087Z,18.97
2018-09-29T09:28:23.542Z,18.20
2018-09-29T09:30:51.196Z,17.79
2018-09-29T09:33:18.894Z,17.38
2018-09-29T09:35:46.333Z,17.10
2018-09-29T09:38:13.738Z,16.82
2018-09-29T09:40:41.669Z,16.52
2018-09-29T09:43:09.070Z,16.16
2018-09-29T09:45:36.748Z,15.62
2018-09-29T09:48:04.249Z,15.38
2018-09-29T09:50:31.674Z,15.27
2018-09-29T09:52:59.218Z,15.05
2018-09-29T09:55:26.690Z,15.14
2018-09-29T09:57:54.242Z,15.11
2018-09-29T10:00:26.283Z,14.99
2018-09-29T10:02:59.468Z,14.90
2018-09-29T10:05:26.907Z,14.87
2018-09-29T10:07:54.293Z,15.00
2018-09-29T10:10:21.894Z,14.99
2018-09-29T10:12:49.448Z,15.04
2018-09-29T10:15:16.934Z,15.10
2018-09-29T10:17:44.352Z,15.10
2018-09-29T10:20:11.816Z,15.06
2018-09-29T10:22:39.361Z,14.96
2018-09-29T10:25:06.931Z,14.94
2018-09-29T10:27:34.419Z,14.99
2018-09-29T10:30:01.946Z,15.06
2018-09-29T10:32:29.412Z,15.17
2018-09-29T10:34:56.837Z,15.10
2018-09-29T10:37:24.330Z,15.12
2018-09-29T10:39:51.701Z,15.22
2018-09-29T10:42:19.125Z,15.19
2018-09-29T10:44:46.511Z,15.06
2018-09-29T10:47:14.255Z,14.94
2018-09-29T10:49:41.666Z,14.89
2018-09-29T10:52:09.277Z,14.94
2018-09-29T10:54:36.802Z,15.00
2018-09-29T10:57:04.237Z,15.16
2018-09-29T10:59:31.709Z,15.28
2018-09-29T11:01:59.215Z,15.43
2018-09-29T11:04:26.643Z,15.38
2018-09-29T11:06:54.117Z,15.46
2018-09-29T11:09:21.679Z,15.36
2018-09-29T11:11:49.164Z,15.36
2018-09-29T11:14:16.599Z,15.34
2018-09-29T11:16:44.071Z,15.35
2018-09-29T11:19:11.560Z,15.50
2018-09-29T11:21:39.090Z,15.56
2018-09-29T11:24:06.649Z,15.64
2018-09-29T11:26:34.121Z,15.63
2018-09-29T11:29:01.557Z,15.72
2018-09-29T11:31:29.132Z,15.93
2018-09-29T11:33:56.625Z,15.93
2018-09-29T11:36:24.047Z,15.86
2018-09-29T11:38:51.603Z,15.90
2018-09-29T11:41:19.059Z,15.82
2018-09-29T11:43:46.760Z,15.92
2018-09-29T11:46:14.385Z,15.93
2018-09-29T11:48:41.841Z,15.98
2018-09-29T11:51:09.285Z,16.02
2018-09-29T11:53:37.047Z,16.09
2018-09-29T11:56:04.542Z,16.08
2018-09-29T11:58:31.962Z,16.07
2018-09-29T12:00:59.615Z,15.99
2018-09-29T12:03:27.025Z,15.91
2018-09-29T12:05:54.437Z,16.00
2018-09-29T12:08:21.923Z,16.05
2018-09-29T12:10:49.356Z,16.11
2018-09-29T12:13:16.840Z,16.12
2018-09-29T12:15:44.286Z,16.15
2018-09-29T12:18:11.667Z,16.14
2018-09-29T12:20:39.086Z,16.18
2018-09-29T12:23:06.563Z,16.23
2018-09-29T12:25:33.994Z,16.31
2018-09-29T12:28:01.454Z,16.26
2018-09-29T12:30:29.906Z,16.25
2018-09-29T12:32:57.338Z,16.24
2018-09-29T12:35:24.905Z,16.39
2018-09-29T12:37:52.626Z,16.38
2018-09-29T12:40:20.053Z,16.43
2018-09-29T12:42:47.463Z,16.26
2018-09-29T12:45:14.988Z,16.19
2018-09-29T12:47:42.382Z,16.28
2018-09-29T12:50:09.859Z,16.38
2018-09-29T12:52:37.468Z,16.44
2018-09-29T12:55:04.962Z,16.42
2018-09-29T12:57:32.416Z,16.38
2018-09-29T12:59:59.913Z,16.39
2018-09-29T13:02:27.304Z,16.42
2018-09-29T13:04:54.898Z,16.48
2018-09-29T13:07:22.406Z,16.43
2018-09-29T13:09:49.872Z,16.49
2018-09-29T13:12:17.415Z,16.57
2018-09-29T13:14:44.881Z,16.57
2018-09-29T13:17:12.244Z,16.50
2018-09-29T13:19:39.748Z,16.47
2018-09-29T13:22:07.705Z,16.40
2018-09-29T13:24:35.126Z,16.43
2018-09-29T13:27:02.598Z,16.40
2018-09-29T13:29:30.054Z,16.43
2018-09-29T13:31:57.558Z,16.45
2018-09-29T13:34:24.990Z,16.43
2018-09-29T13:36:52.898Z,16.44
2018-09-29T13:39:20.413Z,16.49
2018-09-29T13:41:47.823Z,16.54
2018-09-29T13:44:15.254Z,16.57
2018-09-29T13:46:42.735Z,16.54
2018-09-29T13:49:10.275Z,16.67
2018-09-29T13:51:38.125Z,16.63
2018-09-29T13:54:05.603Z,16.56
2018-09-29T13:56:33.081Z,16.57
2018-09-29T13:59:00.850Z,16.64
2018-09-29T14:01:28.309Z,16.67
2018-09-29T14:03:55.732Z,16.67
2018-09-29T14:06:23.319Z,16.68
2018-09-29T14:08:50.781Z,16.70
2018-09-29T14:11:18.252Z,16.75
2018-09-29T14:13:45.782Z,16.77
2018-09-29T14:16:13.227Z,16.76
2018-09-29T14:18:40.734Z,16.75
2018-09-29T14:21:08.224Z,16.67
2018-09-29T14:23:35.687Z,16.70
2018-09-29T14:26:03.701Z,16.70
2018-09-29T14:28:31.308Z,16.75
2018-09-29T14:30:58.745Z,16.68
2018-09-29T14:33:26.334Z,16.62
2018-09-29T14:35:53.844Z,16.56
2018-09-29T14:38:21.411Z,16.63
2018-09-29T14:40:49.137Z,16.55
2018-09-29T14:43:16.617Z,16.52
2018-09-29T14:45:44.062Z,16.52
2018-09-29T14:48:11.727Z,16.53
2018-09-29T14:50:39.302Z,16.52
2018-09-29T14:53:06.790Z,16.55
2018-09-29T14:55:34.401Z,16.63
2018-09-29T14:58:02.054Z,16.60
2018-09-29T15:00:29.410Z,16.67
2018-09-29T15:02:56.938Z,16.61
2018-09-29T15:05:24.600Z,16.60
2018-09-29T15:07:52.072Z,16.63
2018-09-29T15:10:19.705Z,16.60
2018-09-29T15:12:47.055Z,16.56
2018-09-29T15:15:14.500Z,16.63
2018-09-29T15:17:41.960Z,16.65
2018-09-29T15:20:09.610Z,16.56
2018-09-29T15:22:37.205Z,16.47
2018-09-29T15:25:05.044Z,16.40
2018-09-29T15:27:32.490Z,16.33
2018-09-29T15:29:59.941Z,16.32
2018-09-29T15:32:27.354Z,16.27
2018-09-29T15:34:54.832Z,16.22
2018-09-29T15:37:22.412Z,16.22
2018-09-29T15:39:49.987Z,16.26
2018-09-29T15:42:17.648Z,16.21
2018-09-29T15:44:45.182Z,16.16
2018-09-29T15:47:12.742Z,16.19
2018-09-29T15:49:40.239Z,16.12
2018-09-29T15:52:07.621Z,16.00
2018-09-29T15:54:35.047Z,15.91
2018-09-29T15:57:02.544Z,15.85
2018-09-29T15:59:30.136Z,15.85
2018-09-29T16:01:57.570Z,15.95
2018-09-29T16:04:25.018Z,15.90
2018-09-29T16:06:52.611Z,15.89
2018-09-29T16:09:20.073Z,15.74
2018-09-29T16:11:47.766Z,15.68
2018-09-29T16:14:15.286Z,15.61
2018-09-29T16:16:42.832Z,15.51
2018-09-29T16:19:10.321Z,15.45
2018-09-29T16:21:37.804Z,15.52
2018-09-29T16:24:05.719Z,15.63
2018-09-29T16:26:33.621Z,15.44
2018-09-29T16:29:01.395Z,15.31
2018-09-29T16:31:29.170Z,15.23
2018-09-29T16:33:56.727Z,15.29
2018-09-29T16:36:24.496Z,15.29
2018-09-29T16:38:52.502Z,15.19
2018-09-29T16:41:20.098Z,14.98
2018-09-29T16:43:47.565Z,14.80
2018-09-29T16:46:15.050Z,14.64
2018-09-29T16:48:42.594Z,14.51
2018-09-29T16:51:10.122Z,14.43
2018-09-29T16:53:37.794Z,14.40
2018-09-29T16:56:05.523Z,14.50
2018-09-29T16:58:33.002Z,14.54
2018-09-29T17:01:00.677Z,14.51
2018-09-29T17:03:28.241Z,14.41
2018-09-29T17:05:55.811Z,14.37
2018-09-29T17:08:23.303Z,14.21
2018-09-29T17:10:50.939Z,14.05
2018-09-29T17:13:18.371Z,14.16
2018-09-29T17:15:45.868Z,14.00
2018-09-29T17:18:13.650Z,13.87
2018-09-29T17:20:41.104Z,13.77
2018-09-29T17:23:08.490Z,13.65
2018-09-29T17:25:36.110Z,13.62
2018-09-29T17:28:03.574Z,13.44
2018-09-29T17:30:31.022Z,13.43
2018-09-29T17:32:58.488Z,13.60
2018-09-29T17:35:25.937Z,13.65
2018-09-29T17:37:53.396Z,13.61
2018-09-29T17:40:21.175Z,13.62
2018-09-29T17:42:48.742Z,13.58
2018-09-29T17:45:16.346Z,13.59
2018-09-29T17:47:43.772Z,13.65
2018-09-29T17:50:11.344Z,13.70
2018-09-29T17:52:38.834Z,13.73
2018-09-29T17:55:06.316Z,13.78
2018-09-29T17:57:34.230Z,13.67
2018-09-29T18:00:01.770Z,13.69
2018-09-29T18:02:29.355Z,13.65
2018-09-29T18:04:56.794Z,13.63
2018-09-29T18:07:24.400Z,13.57
2018-09-29T18:09:52.182Z,13.56
2018-09-29T18:12:19.657Z,13.45
2018-09-29T18:14:47.158Z,13.38
2018-09-29T18:17:14.795Z,13.40
2018-09-29T18:19:42.489Z,13.32
2018-09-29T18:22:11.360Z,13.11
2018-09-29T18:24:39.131Z,12.92
2018-09-29T18:27:06.776Z,12.76
2018-09-29T18:29:34.252Z,12.62
2018-09-29T18:32:01.729Z,12.55
2018-09-29T18:34:29.362Z,12.58
2018-09-29T18:36:56.936Z,12.54
2018-09-29T18:39:24.380Z,12.69
2018-09-29T18:41:51.950Z,12.72
2018-09-29T18:44:19.374Z,12.80
2018-09-29T18:46:46.903Z,12.88
2018-09-29T18:49:14.311Z,12.87
2018-09-29T18:51:41.980Z,12.85
2018-09-29T18:54:09.454Z,12.81
2018-09-29T18:56:37.216Z,12.70
2018-09-29T18:59:04.772Z,12.60
2018-09-29T19:01:32.274Z,12.49
2018-09-29T19:03:59.743Z,12.27
2018-09-29T19:06:27.222Z,12.07
2018-09-29T19:08:55.850Z,11.93
2018-09-29T19:11:23.284Z,11.90
2018-09-29T19:13:50.776Z,11.89
2018-09-29T19:16:18.324Z,11.71
2018-09-29T19:18:45.871Z,11.54
2018-09-29T19:21:13.362Z,11.48
2018-09-29T19:23:40.952Z,11.33
2018-09-29T19:26:08.862Z,11.29
2018-09-29T19:28:36.274Z,11.29
2018-09-29T19:31:04.201Z,11.27
2018-09-29T19:33:31.705Z,11.22
2018-09-29T19:35:59.266Z,11.12
2018-09-29T19:38:26.710Z,11.01
2018-09-29T19:40:54.211Z,10.86
2018-09-29T19:43:21.634Z,10.68
2018-09-29T19:45:49.119Z,10.56
2018-09-29T19:48:16.878Z,10.44
2018-09-29T19:50:44.331Z,10.34
2018-09-29T19:53:12.057Z,10.26
2018-09-29T19:55:39.522Z,10.26
2018-09-29T19:58:07.175Z,10.24
2018-09-29T20:00:34.899Z,10.18
2018-09-29T20:03:02.318Z,10.14
2018-09-29T20:05:29.905Z,10.11
2018-09-29T20:07:57.335Z,10.00
2018-09-29T20:10:24.774Z,9.94
2018-09-29T20:12:52.586Z,9.87
2018-09-29T20:15:20.058Z,9.79
2018-09-29T20:17:47.708Z,9.97
2018-09-29T20:20:15.135Z,10.11
2018-09-29T20:22:42.568Z,10.07
2018-09-29T20:25:10.256Z,10.00
2018-09-29T20:27:38.140Z,9.92
2018-09-29T20:30:05.746Z,9.88
2018-09-29T20:32:33.154Z,9.85
2018-09-29T20:35:00.624Z,9.83
2018-09-29T20:37:28.122Z,9.83
2018-09-29T20:39:56.193Z,9.78
2018-09-29T20:42:23.860Z,9.73
2018-09-29T20:44:51.823Z,9.72
2018-09-29T20:47:19.331Z,9.71
2018-09-29T20:49:46.791Z,9.65
2018-09-29T20:52:14.342Z,9.67
2018-09-29T20:54:41.725Z,9.72
2018-09-29T20:57:11.110Z,9.67
2018-09-29T20:59:39.353Z,9.60
2018-09-29T21:02:07.396Z,9.54
2018-09-29T21:04:34.818Z,9.52
2018-09-29T21:07:02.272Z,9.49
2018-09-29T21:09:29.703Z,9.48
2018-09-29T21:11:57.066Z,9.47
2018-09-29T21:14:24.658Z,9.45
2018-09-29T21:16:52.601Z,9.41
2018-09-29T21:19:20.137Z,9.32
2018-09-29T21:21:48.281Z,9.25
2018-09-29T21:24:15.689Z,9.20
2018-09-29T21:26:43.057Z,9.17
2018-09-29T21:29:10.638Z,9.15
2018-09-29T21:31:38.062Z,9.17
2018-09-29T21:34:06.310Z,9.13
2018-09-29T21:36:34.490Z,9.10
2018-09-29T21:39:02.043Z,9.10
2018-09-29T21:41:29.556Z,9.08
2018-09-29T21:43:56.993Z,9.04
2018-09-29T21:46:24.506Z,9.06
2018-09-29T21:48:52.142Z,9.07
2018-09-29T21:51:19.776Z,9.10
2018-09-29T21:53:47.273Z,9.08
2018-09-29T21:56:15.217Z,9.00
2018-09-29T21:58:42.790Z,8.95
2018-09-29T22:01:15.979Z,8.91
2018-09-29T22:03:43.724Z,8.96
2018-09-29T22:06:11.123Z,8.90
2018-09-29T22:08:38.553Z,8.92
2018-09-29T22:11:06.415Z,9.17
2018-09-29T22:13:33.912Z,9.10
2018-09-29T22:16:01.409Z,9.13
2018-09-29T22:18:28.872Z,9.08
2018-09-29T22:20:56.322Z,8.97
2018-09-29T22:23:23.790Z,8.86
2018-09-29T22:25:51.298Z,8.71
2018-09-29T22:28:18.691Z,8.61
2018-09-29T22:30:46.071Z,8.50
2018-09-29T22:33:13.674Z,8.40
2018-09-29T22:35:41.051Z,8.30
2018-09-29T22:38:08.447Z,8.22
2018-09-29T22:40:35.985Z,8.15
2018-09-29T22:43:03.452Z,8.10
2018-09-29T22:45:31.053Z,8.06
2018-09-29T22:47:58.637Z,8.06
2018-09-29T22:50:26.123Z,8.07
2018-09-29T22:52:53.542Z,8.02
2018-09-29T22:55:21.103Z,8.03
2018-09-29T22:57:48.707Z,8.03
2018-09-29T23:00:16.134Z,8.01
2018-09-29T23:02:43.713Z,7.99
2018-09-29T23:05:11.195Z,7.96
2018-09-29T23:07:38.628Z,7.96
2018-09-29T23:10:06.224Z,8.00
2018-09-29T23:12:33.675Z,8.04
2018-09-29T23:15:01.068Z,8.03
2018-09-29T23:17:28.539Z,8.04
2018-09-29T23:19:55.973Z,8.05
2018-09-29T23:22:23.407Z,8.07
2018-09-29T23:24:50.840Z,8.07
2018-09-29T23:27:18.275Z,8.04
2018-09-29T23:29:45.690Z,8.03
2018-09-29T23:32:13.215Z,7.98
2018-09-29T23:34:40.656Z,8.05
2018-09-29T23:37:09.155Z,8.16
2018-09-29T23:39:36.749Z,8.25
2018-09-29T23:42:04.186Z,8.28
2018-09-29T23:44:31.581Z,8.19
2018-09-29T23:46:59.115Z,8.09
2018-09-29T23:49:26.560Z,7.96
2018-09-29T23:51:54.039Z,7.83
2018-09-29T23:54:21.637Z,7.76
2018-09-29T23:56:48.996Z,7.65
2018-09-29T23:59:16.384Z,7.53
